Time;durP1;ratioP1;P1;durP2;ratioP2;P2;SDS_P1;SDS_P2;PMS_P1;PMS_P2;Temp;Humidity;BMP_temperature;BMP_pressure;BME280_temperature;BME280_humidity;BME280_pressure;Samples;Min_cycle;Max_cycle;Signal;HPM_P1;HPM_P2
2022/01/23 00:02:18;;;;;;;20.50;10.15;;;;;;;4.12;100.00;102443.63;4918553;29;20061;-88
2022/01/23 00:04:44;;;;;;;22.83;9.50;;;;;;;4.15;100.00;102438.94;4904209;29;20037;-88
2022/01/23 00:07:13;;;;;;;16.42;8.68;;;;;;;4.08;100.00;102427.03;4886992;29;20037;-88
2022/01/23 00:09:39;;;;;;;13.52;8.52;;;;;;;4.16;100.00;102427.28;4918486;29;20060;-88
2022/01/23 00:12:10;;;;;;;19.98;9.93;;;;;;;3.96;100.00;102391.53;4899630;29;20029;-88
2022/01/23 00:17:20;;;;;;;19.45;9.57;;;;;;;4.05;100.00;102419.28;4915091;29;20024;-88
2022/01/23 00:19:56;;;;;;;22.25;9.38;;;;;;;3.99;100.00;102412.59;4919313;29;20060;-88
2022/01/23 00:22:29;;;;;;;19.42;9.02;;;;;;;4.14;100.00;102428.38;4917800;29;20029;-88
2022/01/23 00:30:31;;;;;;;39.78;10.90;;;;;;;3.98;100.00;102407.41;4874864;29;20092;-88
2022/01/23 00:33:00;;;;;;;27.08;10.68;;;;;;;4.08;100.00;102435.03;4883835;29;20122;-88
2022/01/23 00:35:26;;;;;;;27.75;10.48;;;;;;;4.12;100.00;102439.16;4899029;29;20058;-88
2022/01/23 00:37:52;;;;;;;26.75;10.25;;;;;;;3.95;100.00;102427.13;4882607;29;20100;-88
2022/01/23 00:40:18;;;;;;;23.95;10.45;;;;;;;4.12;100.00;102448.97;4902003;29;20031;-88
2022/01/23 00:42:44;;;;;;;19.08;9.30;;;;;;;4.13;100.00;102446.16;4901146;29;20029;-88
2022/01/23 00:45:32;;;;;;;16.52;9.48;;;;;;;4.03;100.00;102428.34;4901864;29;20043;-88
2022/01/23 00:48:03;;;;;;;19.85;10.20;;;;;;;4.09;100.00;102442.06;4903725;29;20036;-87
2022/01/23 00:50:32;;;;;;;21.88;10.18;;;;;;;4.13;100.00;102456.81;4898038;29;20044;-88
2022/01/23 00:52:58;;;;;;;20.63;9.90;;;;;;;3.98;100.00;102429.56;4898216;29;20033;-88
2022/01/23 00:55:24;;;;;;;24.23;11.10;;;;;;;4.14;100.00;102447.91;4902243;29;20040;-88
2022/01/23 01:00:20;;;;;;;18.42;9.85;;;;;;;4.13;100.00;102446.16;4936084;29;20056;-88
2022/01/23 01:02:46;;;;;;;22.92;10.52;;;;;;;3.27;100.00;102310.69;4935781;29;20040;-88
2022/01/23 01:05:11;;;;;;;27.98;10.20;;;;;;;3.08;100.00;102276.66;4935231;29;20027;-88
2022/01/23 01:07:38;;;;;;;40.20;11.65;;;;;;;3.08;100.00;102283.78;5191715;23;20122;-80
2022/01/23 01:10:10;;;;;;;42.50;11.60;;;;;;;3.04;100.00;102288.47;4941355;28;20032;-89
2022/01/23 01:12:41;;;;;;;19.77;9.55;;;;;;;3.28;100.00;102315.94;4925797;29;20028;-89
2022/01/23 01:31:13;;;;;;;37.83;11.75;;;;;;;3.41;100.00;102363.75;4941698;28;20072;-89
2022/01/23 01:36:20;;;;;;;32.25;10.68;;;;;;;3.41;100.00;102389.50;4941257;28;20036;-88
2022/01/23 01:38:46;;;;;;;41.35;11.25;;;;;;;3.17;100.00;102349.59;4942738;28;20012;-89
2022/01/23 01:41:13;;;;;;;24.75;10.23;;;;;;;3.27;100.00;102366.56;4942080;29;20040;-88
2022/01/23 01:43:38;;;;;;;35.50;11.43;;;;;;;2.95;100.00;102311.28;5108449;23;20112;-89
2022/01/23 01:46:04;;;;;;;51.63;11.15;;;;;;;3.15;100.00;102351.53;4921845;29;20065;-89
2022/01/23 01:48:30;;;;;;;38.67;11.98;;;;;;;2.99;100.00;102335.84;4937500;29;20051;-89
2022/01/23 01:50:59;;;;;;;33.60;12.32;;;;;;;2.88;100.00;102306.50;4922715;29;20037;-89
2022/01/23 01:53:25;;;;;;;35.35;11.75;;;;;;;2.94;100.00;102328.19;4922643;29;20031;-89
2022/01/23 01:55:54;;;;;;;26.00;12.13;;;;;;;2.98;100.00;102337.66;4937844;29;20037;-88
2022/01/23 02:02:47;;;;;;;102.28;14.13;;;;;;;2.98;100.00;102332.34;4925619;23;20048;-88
2022/01/23 02:09:42;;;;;;;32.53;12.93;;;;;;;3.12;100.00;102349.09;4960651;29;20079;-89
2022/01/23 02:15:28;;;;;;;32.88;12.20;;;;;;;3.37;100.00;102386.22;4902539;29;20029;-89
2022/01/23 02:18:13;;;;;;;30.85;13.18;;;;;;;3.32;100.00;102363.59;4957451;28;20052;-89
2022/01/23 02:23:56;;;;;;;36.97;13.98;;;;;;;3.05;100.00;102344.22;4960738;28;20134;-89
2022/01/23 02:50:57;;;;;;;41.80;16.13;;;;;;;3.04;100.00;102336.34;4941275;28;20048;-88
2022/01/23 02:53:40;;;;;;;57.63;16.63;;;;;;;4.05;100.00;102496.53;4924824;29;20012;-88
2022/01/23 02:56:18;;;;;;;39.45;14.65;;;;;;;3.09;100.00;102323.56;4925003;29;20031;-88
2022/01/23 02:58:57;;;;;;;60.08;17.65;;;;;;;3.50;100.00;102396.81;4990699;23;20073;-88
2022/01/23 03:01:27;;;;;;;32.60;14.13;;;;;;;3.39;100.00;102378.97;5053184;23;20084;-88
2022/01/23 03:03:59;;;;;;;49.65;16.02;;;;;;;3.34;100.00;102370.47;4941146;28;20141;-88
2022/01/23 03:06:51;;;;;;;73.47;18.17;;;;;;;3.34;100.00;102348.34;4926527;28;20056;-88
2022/01/23 03:25:28;;;;;;;104.75;14.57;;;;;;;3.04;100.00;102339.00;4944692;29;20027;-88
2022/01/23 03:30:40;;;;;;;84.88;10.88;;;;;;;3.86;100.00;102488.22;4944878;28;20039;-89
2022/01/23 03:35:40;;;;;;;75.80;10.50;;;;;;;2.83;100.00;102336.94;5043935;23;20056;-88
2022/01/23 03:38:06;;;;;;;55.88;9.43;;;;;;;2.85;100.00;102322.69;4944736;28;20032;-88
2022/01/23 03:40:32;;;;;;;56.33;8.55;;;;;;;2.74;100.00;102303.03;4928496;29;20032;-88
2022/01/23 03:43:08;;;;;;;48.88;8.10;;;;;;;3.00;100.00;102354.34;4928100;28;20016;-89
2022/01/23 03:53:13;;;;;;;96.13;8.40;;;;;;;2.78;100.00;102335.56;4939467;28;20091;-88
2022/01/23 03:55:39;;;;;;;50.53;7.35;;;;;;;2.83;100.00;102352.91;4944275;28;20017;-89
2022/01/23 03:58:04;;;;;;;65.50;7.85;;;;;;;3.66;100.00;102489.69;5216668;23;20058;-87
2022/01/23 04:00:30;;;;;;;49.97;8.23;;;;;;;2.99;100.00;102376.56;4944157;28;20095;-87
2022/01/23 04:02:56;;;;;;;74.82;9.35;;;;;;;2.79;100.00;102331.97;5025853;23;20150;-86
2022/01/23 04:07:56;;;;;;;77.22;9.52;;;;;;;3.11;100.00;102393.44;5480776;23;20052;-86
2022/01/23 04:10:24;;;;;;;70.80;9.40;;;;;;;2.93;100.00;102358.41;4921810;29;20093;-88
2022/01/23 04:13:12;;;;;;;78.95;9.43;;;;;;;3.02;100.00;102370.19;4905218;29;20021;-88
2022/01/23 04:34:49;;;;;;;83.55;10.85;;;;;;;3.75;100.00;102508.50;4940198;29;20063;-88
2022/01/23 04:45:35;;;;;;;136.05;12.82;;;;;;;2.91;100.00;102367.44;4939186;29;20039;-88
2022/01/23 05:04:32;;;;;;;149.88;13.02;;;;;;;3.64;100.00;102460.53;4916571;29;20060;-87
2022/01/23 05:07:09;;;;;;;128.68;14.00;;;;;;;3.39;100.00;102418.03;4885674;29;20036;-87
2022/01/23 05:09:35;;;;;;;62.25;11.95;;;;;;;3.45;100.00;102412.28;4913913;29;20146;-87
2022/01/23 05:12:08;;;;;;;77.28;12.25;;;;;;;3.85;100.00;102494.50;4922756;29;20028;-87
2022/01/23 05:14:38;;;;;;;130.45;13.13;;;;;;;2.86;100.00;102327.91;4922164;29;20024;-88
2022/01/23 05:17:07;;;;;;;95.82;13.25;;;;;;;2.96;100.00;102346.69;4906247;29;20021;-87
2022/01/23 05:19:33;;;;;;;83.13;12.60;;;;;;;3.46;100.00;102427.28;4922004;29;20015;-87
2022/01/23 05:24:37;;;;;;;95.13;11.25;;;;;;;3.33;100.00;102406.03;4921616;29;20035;-88
2022/01/23 05:27:06;;;;;;;136.77;13.17;;;;;;;3.29;100.00;102405.41;4921471;29;20025;-87
2022/01/23 05:29:39;;;;;;;106.82;12.95;;;;;;;4.01;100.00;102511.06;4919472;29;20035;-87
2022/01/23 05:32:11;;;;;;;69.22;11.68;;;;;;;3.04;100.00;102349.63;4920259;29;20032;-87
2022/01/23 05:34:37;;;;;;;74.72;12.52;;;;;;;3.28;100.00;102389.56;4906722;28;20039;-87
2022/01/23 05:37:03;;;;;;;75.40;12.90;;;;;;;3.27;100.00;102393.16;4904549;29;20017;-88
2022/01/23 05:39:32;;;;;;;89.65;12.55;;;;;;;3.09;100.00;102355.47;4904132;29;20029;-88
2022/01/23 05:42:05;;;;;;;66.93;12.95;;;;;;;3.34;100.00;102388.25;4902135;29;20100;-86
2022/01/23 05:44:31;;;;;;;81.80;12.60;;;;;;;3.51;100.00;102417.16;4910535;29;20028;-87
2022/01/23 05:46:58;;;;;;;126.78;14.45;;;;;;;3.57;100.00;102431.78;4894395;29;20049;-86
2022/01/23 05:49:23;;;;;;;91.88;13.25;;;;;;;3.62;100.00;102440.31;4911791;29;20024;-86
2022/01/23 05:51:49;;;;;;;248.30;17.52;;;;;;;3.53;100.00;102431.16;4911874;29;20067;-86
2022/01/23 05:54:14;;;;;;;112.63;13.52;;;;;;;3.57;100.00;102435.31;4896814;29;20579;-86
2022/01/23 05:56:40;;;;;;;151.80;14.05;;;;;;;3.65;100.00;102429.44;4915210;29;20016;-87
2022/01/23 05:59:06;;;;;;;66.50;11.77;;;;;;;4.24;100.00;102533.31;4904000;29;20069;-86
2022/01/23 06:01:32;;;;;;;71.53;10.40;;;;;;;3.52;100.00;102414.34;4917955;29;20028;-87
2022/01/23 06:03:58;;;;;;;93.10;10.60;;;;;;;4.15;100.00;102502.88;4899087;29;20056;-85
2022/01/23 06:06:23;;;;;;;112.65;11.32;;;;;;;4.01;100.00;102468.44;4901712;29;20013;-87
2022/01/23 06:08:49;;;;;;;62.70;8.98;;;;;;;3.67;100.00;102404.38;4932537;29;20052;-87
2022/01/23 06:11:16;;;;;;;59.53;7.97;;;;;;;3.78;100.00;102422.22;4939334;29;20024;-86
2022/01/23 06:13:41;;;;;;;35.60;6.65;;;;;;;3.93;100.00;102444.16;4936931;29;20043;-86
2022/01/23 06:16:07;;;;;;;66.25;7.55;;;;;;;3.96;100.00;102443.94;4933581;29;20052;-86
2022/01/23 06:18:36;;;;;;;47.28;5.78;;;;;;;3.67;100.00;102400.88;4935671;29;20027;-86
2022/01/23 06:21:02;;;;;;;42.15;5.72;;;;;;;3.90;100.00;102429.28;4916750;29;20028;-85
2022/01/23 06:23:30;;;;;;;80.22;6.93;;;;;;;3.72;100.00;102404.88;4917321;29;20099;-86
2022/01/23 06:25:56;;;;;;;85.28;6.47;;;;;;;3.96;100.00;102443.94;4912684;29;20028;-82
2022/01/23 06:28:28;;;;;;;111.15;7.53;;;;;;;4.70;100.00;102546.66;4913352;29;20024;-82
2022/01/23 06:30:53;;;;;;;42.40;5.50;;;;;;;3.94;100.00;102420.09;4928975;29;20035;-80
2022/01/23 06:33:19;;;;;;;80.10;6.32;;;;;;;3.86;100.00;102417.16;4926322;29;20024;-81
2022/01/23 06:35:44;;;;;;;39.58;5.32;;;;;;;4.21;100.00;102465.09;4917382;29;20029;-83
2022/01/23 06:38:09;;;;;;;38.40;5.50;;;;;;;4.20;100.00;102457.22;4914286;29;20033;-81
2022/01/23 06:40:53;;;;;;;48.50;5.68;;;;;;;4.76;100.00;102544.47;4930391;29;20031;-82
2022/01/23 06:43:18;;;;;;;84.05;6.57;;;;;;;3.95;100.00;102411.16;4912654;29;20035;-82
2022/01/23 06:45:44;;;;;;;86.32;6.97;;;;;;;4.55;100.00;102501.66;4913832;29;20031;-82
2022/01/23 06:48:09;;;;;;;53.42;6.15;;;;;;;4.00;100.00;102408.97;4914639;29;20123;-82
2022/01/23 06:50:35;;;;;;;55.28;6.45;;;;;;;4.57;100.00;102511.25;4933117;29;20035;-83
2022/01/23 06:53:00;;;;;;;77.70;6.53;;;;;;;3.99;100.00;102427.75;4933335;29;20028;-82
2022/01/23 06:55:26;;;;;;;65.90;7.32;;;;;;;4.81;100.00;102548.47;4929806;29;20066;-83
2022/01/23 06:57:51;;;;;;;88.30;7.25;;;;;;;4.65;100.00;102521.31;4919202;29;20044;-82
2022/01/23 07:00:17;;;;;;;28.85;6.00;;;;;;;4.35;100.00;102465.88;4924495;29;20059;-82
2022/01/23 07:02:42;;;;;;;96.43;7.55;;;;;;;4.11;100.00;102440.13;4914090;29;20042;-82
2022/01/23 07:05:08;;;;;;;117.18;8.45;;;;;;;4.26;100.00;102461.22;4892614;29;20043;-82
2022/01/23 07:07:33;;;;;;;185.65;9.27;;;;;;;4.51;100.00;102493.03;4916856;29;20048;-83
2022/01/23 07:09:59;;;;;;;103.95;8.45;;;;;;;4.58;100.00;102502.25;4930842;29;20088;-83
2022/01/23 07:12:24;;;;;;;45.72;7.50;;;;;;;4.68;100.00;102518.41;4914403;29;20020;-83
2022/01/23 07:14:50;;;;;;;94.40;8.23;;;;;;;4.54;100.00;102491.97;4920253;29;20101;-83
2022/01/23 07:17:15;;;;;;;83.75;8.68;;;;;;;4.45;100.00;102469.53;4909868;29;20035;-81
2022/01/23 07:19:42;;;;;;;118.00;9.55;;;;;;;4.55;100.00;102497.16;4933354;29;20032;-85
2022/01/23 07:22:07;;;;;;;106.47;9.40;;;;;;;4.43;100.00;102484.78;4931089;29;20110;-82
2022/01/23 07:24:36;;;;;;;176.20;10.15;;;;;;;4.57;100.00;102497.91;4928438;29;20048;-85
2022/01/23 07:27:11;;;;;;;162.82;11.00;;;;;;;4.71;100.00;102518.16;4911622;29;20028;-86
2022/01/23 07:29:48;;;;;;;215.27;12.38;;;;;;;4.31;100.00;102449.25;4919165;29;20028;-83
2022/01/23 07:32:14;;;;;;;154.60;11.02;;;;;;;4.55;100.00;102477.66;4940222;28;20032;-86
2022/01/23 07:34:39;;;;;;;168.32;12.20;;;;;;;5.26;100.00;102591.22;4938070;28;20043;-86
2022/01/23 07:37:05;;;;;;;96.18;10.18;;;;;;;4.90;100.00;102530.91;4919085;29;20043;-85
2022/01/23 07:39:31;;;;;;;160.40;11.85;;;;;;;4.76;100.00;102523.97;4919339;29;20032;-85
2022/01/23 07:41:57;;;;;;;337.88;15.90;;;;;;;4.77;100.00;102527.50;4936983;29;20038;-85
2022/01/23 07:44:22;;;;;;;91.60;9.85;;;;;;;4.64;100.00;102498.28;4935746;29;20083;-86
2022/01/23 07:46:48;;;;;;;134.70;11.40;;;;;;;4.60;100.00;102508.34;4935461;29;20043;-85
2022/01/23 07:49:14;;;;;;;73.20;11.18;;;;;;;4.85;100.00;102533.94;4916127;29;20076;-86
2022/01/23 07:51:39;;;;;;;136.50;12.57;;;;;;;4.39;100.00;102468.16;4924997;29;20032;-86
2022/01/23 07:54:05;;;;;;;85.35;10.02;;;;;;;4.68;100.00;102502.41;4920224;29;20028;-85
2022/01/23 07:56:31;;;;;;;163.05;12.13;;;;;;;4.77;100.00;102525.69;4927218;29;20430;-86
2022/01/23 07:58:56;;;;;;;78.55;10.68;;;;;;;4.98;100.00;102549.84;4940049;29;20024;-86
2022/01/23 08:01:22;;;;;;;158.82;12.73;;;;;;;4.86;100.00;102518.78;4939156;29;20099;-86
2022/01/23 08:03:48;;;;;;;140.70;12.77;;;;;;;4.66;100.00;102491.84;4920088;29;20036;-86
2022/01/23 08:06:15;;;;;;;184.50;13.73;;;;;;;4.85;100.00;102517.09;4920703;29;20028;-86
2022/01/23 08:08:41;;;;;;;137.10;11.38;;;;;;;5.10;100.00;102554.22;4927641;29;20044;-87
2022/01/23 08:11:07;;;;;;;106.75;11.20;;;;;;;4.68;100.00;102489.91;4925015;29;20116;-86
2022/01/23 08:16:55;;;;;;;148.50;12.70;;;;;;;4.84;100.00;102507.41;4943992;28;20067;-87
2022/01/23 08:19:21;;;;;;;107.05;12.20;;;;;;;5.25;100.00;102572.66;4927131;29;20032;-87
2022/01/23 08:21:46;;;;;;;113.85;13.20;;;;;;;5.03;100.00;102528.97;4927591;29;20028;-85
2022/01/23 08:24:12;;;;;;;137.70;13.25;;;;;;;4.80;100.00;102492.56;4943039;29;20043;-87
2022/01/23 08:29:13;;;;;;;64.05;11.38;;;;;;;5.34;100.00;102588.81;5113498;23;20071;-86
2022/01/23 08:31:38;;;;;;;77.30;11.35;;;;;;;5.31;100.00;102572.19;4903357;29;20119;-86
2022/01/23 08:34:04;;;;;;;82.53;10.35;;;;;;;5.00;100.00;102505.22;4902810;29;20024;-86
2022/01/23 08:36:32;;;;;;;63.15;8.55;;;;;;;4.91;100.00;102505.94;4902155;29;20044;-86
2022/01/23 08:39:00;;;;;;;58.78;8.82;;;;;;;5.12;100.00;102532.75;4898021;29;20053;-86
2022/01/23 08:44:11;;;;;;;89.97;8.75;;;;;;;5.13;100.00;102527.31;4906057;29;20132;-87
2022/01/23 08:46:36;;;;;;;52.33;8.25;;;;;;;4.98;100.00;102512.50;4902960;29;20036;-86
2022/01/23 08:49:02;;;;;;;39.88;7.07;;;;;;;4.95;100.00;102494.06;4917513;29;20029;-86
2022/01/23 08:51:28;;;;;;;59.78;6.78;;;;;;;5.87;100.00;102625.56;4900966;29;20040;-86
2022/01/23 08:53:53;;;;;;;58.97;6.45;;;;;;;5.31;100.00;102533.00;4901850;29;20029;-86
2022/01/23 08:56:19;;;;;;;116.80;8.52;;;;;;;5.86;100.00;102610.47;4904150;29;20065;-87
2022/01/23 08:58:45;;;;;;;66.43;6.40;;;;;;;5.22;100.00;102523.03;4904003;29;20063;-86
2022/01/23 09:01:10;;;;;;;76.97;6.30;;;;;;;5.07;100.00;102501.09;4921033;29;20025;-86
2022/01/23 09:03:36;;;;;;;52.80;5.80;;;;;;;5.27;100.00;102522.69;4919364;29;20056;-87
2022/01/23 09:06:04;;;;;;;73.00;7.32;;;;;;;5.31;100.00;102529.47;4903119;29;20029;-86
2022/01/23 09:08:29;;;;;;;57.63;7.00;;;;;;;5.59;100.00;102570.81;4888006;29;20119;-87
2022/01/23 09:10:58;;;;;;;57.42;6.95;;;;;;;5.11;100.00;102481.19;4920016;29;20024;-87
2022/01/23 09:13:52;;;;;;;43.80;5.07;;;;;;;5.44;100.00;102548.88;4903469;29;20028;-86
2022/01/23 09:16:17;;;;;;;46.60;5.78;;;;;;;5.96;100.00;102622.19;4904286;29;20100;-87
2022/01/23 09:18:43;;;;;;;21.98;3.60;;;;;;;5.41;100.00;102533.09;4919762;29;20080;-87
2022/01/23 09:21:09;;;;;;;19.48;2.97;;;;;;;5.44;100.00;102538.19;4903788;29;20024;-87
2022/01/23 09:23:34;;;;;;;16.35;2.92;;;;;;;5.45;100.00;102547.91;4902670;29;20217;-87
2022/01/23 09:26:07;;;;;;;15.50;3.30;;;;;;;5.10;100.00;102505.31;4921365;28;20037;-89
2022/01/23 09:32:35;;;;;;;21.95;1.65;;;;;;;5.95;100.00;102630.31;5798032;23;20034;31
2022/01/23 09:35:01;;;;;;;13.43;1.70;;;;;;;5.05;100.00;102508.38;4898325;29;20052;-88
2022/01/23 09:50:22;;;;;;;13.27;2.10;;;;;;;5.23;100.00;102535.44;5542352;23;20056;-88
2022/01/23 09:52:53;;;;;;;14.75;2.40;;;;;;;5.04;100.00;102514.69;4923785;29;20012;-90
2022/01/23 09:55:20;;;;;;;15.13;2.15;;;;;;;5.03;100.00;102493.44;4939453;29;20044;-87
2022/01/23 09:57:50;;;;;;;15.23;2.13;;;;;;;5.01;100.00;102484.72;4932767;29;20017;-88
2022/01/23 10:00:21;;;;;;;14.45;2.00;;;;;;;4.92;100.00;102486.28;4919071;29;20112;-88
2022/01/23 10:02:47;;;;;;;24.67;2.05;;;;;;;5.24;100.00;102529.13;4922849;29;20033;-90
2022/01/23 10:05:14;;;;;;;16.77;2.10;;;;;;;4.99;100.00;102487.50;4921892;29;20068;-89
2022/01/23 10:07:41;;;;;;;23.17;2.17;;;;;;;4.98;100.00;102482.31;4921192;29;20024;-89
2022/01/23 10:10:13;;;;;;;20.70;2.85;;;;;;;5.08;100.00;102497.44;4921886;29;20047;-89
2022/01/23 10:12:54;;;;;;;16.85;2.50;;;;;;;5.42;100.00;102548.13;5030970;23;20066;-88
2022/01/23 10:15:21;;;;;;;24.50;3.08;;;;;;;5.14;100.00;102496.97;4921444;29;20015;-89
2022/01/23 10:17:47;;;;;;;13.63;2.90;;;;;;;6.04;100.00;102640.25;4940925;29;20032;-89
2022/01/23 10:22:52;;;;;;;16.42;3.63;;;;;;;6.15;100.00;102623.34;5816570;23;20038;31
2022/01/23 10:25:23;;;;;;;13.60;2.60;;;;;;;6.13;100.00;102618.13;5115242;23;20048;-86
2022/01/23 10:33:08;;;;;;;16.17;2.72;;;;;;;5.46;100.00;102512.22;5629544;23;20219;-80
2022/01/23 10:35:52;;;;;;;15.55;2.70;;;;;;;5.94;100.00;102565.34;5257318;23;20104;-83
2022/01/23 10:56:20;;;;;;;16.67;3.55;;;;;;;5.82;100.00;102495.00;5304716;23;20055;-88
2022/01/23 11:01:21;;;;;;;17.85;3.38;;;;;;;5.61;100.00;102470.06;5227892;23;20044;-84
2022/01/23 11:06:21;;;;;;;18.65;3.35;;;;;;;5.99;100.00;102532.88;5757455;23;20066;-85
2022/01/23 11:11:45;;;;;;;17.80;2.95;;;;;;;5.77;100.00;102470.50;5575585;23;21310;-79
2022/01/23 11:19:40;;;;;;;11.87;3.30;;;;;;;5.84;100.00;102469.03;4940724;29;20048;-88
2022/01/23 11:22:06;;;;;;;19.45;3.88;;;;;;;5.85;100.00;102459.19;4924701;29;20311;-87
2022/01/23 11:27:08;;;;;;;16.38;3.47;;;;;;;6.30;100.00;102512.47;5666925;23;20040;-90
2022/01/23 11:29:34;;;;;;;22.55;3.45;;;;;;;6.45;100.00;102524.53;4943506;29;20056;-89
2022/01/23 11:34:35;;;;;;;28.55;3.42;;;;;;;6.05;100.00;102447.69;5606070;23;20035;-88
2022/01/23 11:37:02;;;;;;;17.92;3.22;;;;;;;6.98;100.00;102588.66;4925345;29;20016;-89
2022/01/23 11:39:45;;;;;;;20.67;2.88;;;;;;;6.26;100.00;102477.13;4940870;29;20024;-87
2022/01/23 11:53:52;;;;;;;26.85;4.10;;;;;;;7.12;100.00;102597.34;4941318;29;20042;-88
2022/01/23 11:56:28;;;;;;;;;;;;;;;7.11;100.00;102595.66;4937763;29;20038;-88
2022/01/23 11:59:16;;;;;;;21.98;3.63;;;;;;;6.56;100.00;102503.09;5075712;23;20015;-90
2022/01/23 12:04:21;;;;;;;28.50;3.47;;;;;;;7.04;100.00;102581.94;5107137;23;20070;-89
2022/01/23 12:12:01;;;;;;;27.95;3.95;;;;;;;7.29;100.00;102583.34;5106337;23;20044;-88
2022/01/23 12:27:27;;;;;;;24.60;3.47;;;;;;;6.48;100.00;102454.75;5140108;23;20066;-90
2022/01/23 12:29:55;;;;;;;30.85;6.30;;;;;;;6.90;100.00;102520.75;4927820;29;20028;-90
2022/01/23 12:32:31;;;;;;;19.02;3.92;;;;;;;7.30;100.00;102577.00;5124029;23;20062;-88
2022/01/23 12:34:59;;;;;;;24.08;4.03;;;;;;;6.66;100.00;102475.56;5207556;23;20040;-89
2022/01/23 12:37:27;;;;;;;22.15;2.63;;;;;;;6.78;100.00;102496.72;4924524;29;20027;-91
2022/01/23 12:40:22;;;;;;;26.30;3.85;;;;;;;6.36;100.00;102431.75;5036577;23;20036;-87
2022/01/23 12:43:12;;;;;;;21.23;4.37;;;;;;;7.20;100.00;102562.72;4899430;29;20085;-90
2022/01/23 12:45:58;;;;;;;25.65;3.95;;;;;;;7.19;100.00;102563.72;4963792;23;20299;-88
2022/01/23 12:48:26;;;;;;;19.33;2.83;;;;;;;7.16;100.00;102569.34;5125676;23;20047;-90
2022/01/23 12:53:46;;;;;;;20.38;3.30;;;;;;;7.14;100.00;102561.44;5063850;23;20056;-89
2022/01/23 13:03:59;;;;;;;28.25;3.03;;;;;;;6.65;100.00;102468.50;4956544;23;20059;-89
2022/01/23 13:06:55;;;;;;;31.50;4.32;;;;;;;6.36;100.00;102429.09;4923887;29;20031;-87
2022/01/23 13:09:37;;;;;;;25.45;3.83;;;;;;;6.44;100.00;102439.94;5122915;23;20116;-87
2022/01/23 13:18:14;;;;;;;26.30;3.28;;;;;;;7.37;100.00;102562.09;4901988;29;20081;-89
2022/01/23 13:31:42;;;;;;;23.67;2.85;;;;;;;6.49;100.00;102459.13;4918824;29;20063;-89
2022/01/23 13:34:29;;;;;;;23.75;3.53;;;;;;;7.21;100.00;102567.94;4902101;29;20009;-90
2022/01/23 13:36:58;;;;;;;20.48;3.13;;;;;;;7.11;100.00;102560.84;4919470;29;20024;-90
2022/01/23 13:52:43;;;;;;;22.63;2.70;;;;;;;6.74;100.00;102470.38;4940578;29;20028;-89
2022/01/23 14:01:17;;;;;;;23.13;2.70;;;;;;;6.85;100.00;102501.53;4908301;29;20036;-89
2022/01/23 14:03:43;;;;;;;23.02;3.53;;;;;;;6.62;100.00;102464.25;4898763;29;20028;-90
2022/01/23 14:06:10;;;;;;;22.98;3.10;;;;;;;6.96;100.00;102529.09;4903754;29;20036;-89
2022/01/23 14:08:35;;;;;;;19.77;2.85;;;;;;;6.61;100.00;102467.06;4888919;29;20029;-89
2022/01/23 14:11:01;;;;;;;26.40;2.90;;;;;;;6.83;100.00;102510.56;4917942;29;20027;-90
2022/01/23 14:13:26;;;;;;;21.52;2.95;;;;;;;7.15;100.00;102554.25;4905795;29;20040;-90
2022/01/23 14:15:55;;;;;;;29.13;3.20;;;;;;;6.54;100.00;102464.91;4904556;29;20091;-89
2022/01/23 14:18:27;;;;;;;21.27;2.78;;;;;;;6.54;100.00;102464.91;4920363;29;20027;-89
2022/01/23 14:21:12;;;;;;;19.30;2.75;;;;;;;6.14;100.00;102419.38;4937409;29;20083;-90
2022/01/23 14:23:38;;;;;;;20.38;2.80;;;;;;;6.07;100.00;102405.69;4937200;29;20032;-90
2022/01/23 14:26:13;;;;;;;20.30;2.75;;;;;;;6.39;100.00;102455.56;4918795;29;20042;-90
2022/01/23 14:28:45;;;;;;;22.77;3.38;;;;;;;6.96;100.00;102542.47;4936641;29;20016;-89
2022/01/23 14:31:24;;;;;;;23.00;2.95;;;;;;;6.20;100.00;102436.72;4919886;29;20028;-90
2022/01/23 14:33:57;;;;;;;28.92;3.53;;;;;;;6.37;100.00;102464.69;4934143;29;20027;-89
2022/01/23 14:36:32;;;;;;;25.67;2.95;;;;;;;6.15;100.00;102444.25;4920413;29;20028;-90
2022/01/23 14:39:05;;;;;;;23.15;3.45;;;;;;;6.82;100.00;102551.69;4919467;29;20180;-89
2022/01/23 14:41:40;;;;;;;25.33;5.25;;;;;;;6.06;100.00;102452.09;4913974;29;20047;-90
2022/01/23 14:44:24;;;;;;;22.13;3.35;;;;;;;5.89;100.00;102418.75;4917805;29;20052;-89
2022/01/23 14:46:52;;;;;;;28.65;3.60;;;;;;;5.92;100.00;102424.78;4909690;29;20039;-89
2022/01/23 14:49:25;;;;;;;19.23;4.35;;;;;;;6.70;100.00;102559.91;4918412;29;20054;-89
2022/01/23 14:51:52;;;;;;;25.90;4.28;;;;;;;6.05;100.00;102471.75;4909615;29;20008;-89
2022/01/23 14:54:20;;;;;;;28.00;3.72;;;;;;;5.58;100.00;102425.78;4920012;29;20012;-89
2022/01/23 14:56:46;;;;;;;19.70;2.88;;;;;;;6.04;100.00;102499.47;4938070;29;20058;-90
2022/01/23 14:59:14;;;;;;;17.83;3.38;;;;;;;5.45;100.00;102416.25;4936461;29;20040;-88
2022/01/23 15:01:42;;;;;;;18.00;2.85;;;;;;;5.37;100.00;102401.69;4911323;29;20028;-81
2022/01/23 15:04:10;;;;;;;21.58;3.40;;;;;;;5.67;100.00;102482.09;4912739;29;20059;-82
2022/01/23 15:06:41;;;;;;;25.67;6.45;;;;;;;6.07;100.00;102546.47;4934712;29;20104;-82
2022/01/23 15:09:11;;;;;;;19.77;6.00;;;;;;;5.70;100.00;102498.72;4917462;29;20477;-82
2022/01/23 15:11:38;;;;;;;22.23;6.32;;;;;;;5.75;100.00;102527.69;4915552;29;20024;-84
2022/01/23 15:14:05;;;;;;;23.88;6.80;;;;;;;5.51;100.00;102494.00;4914678;29;20043;-86
2022/01/23 15:16:31;;;;;;;29.25;5.28;;;;;;;5.10;100.00;102438.63;4931664;29;20084;-88
2022/01/23 15:18:57;;;;;;;22.80;5.35;;;;;;;5.45;100.00;102510.53;4915083;29;20027;-85
2022/01/23 15:21:22;;;;;;;26.88;5.88;;;;;;;5.41;100.00;102485.91;4913064;29;20027;-85
2022/01/23 15:23:55;;;;;;;21.85;5.25;;;;;;;5.26;100.00;102471.09;4929398;29;20055;-83
2022/01/23 15:26:21;;;;;;;27.00;7.00;;;;;;;5.29;100.00;102462.00;4897641;29;20033;-82
2022/01/23 15:28:46;;;;;;;18.35;4.80;;;;;;;5.10;100.00;102428.81;4898712;29;20036;-85
2022/01/23 15:31:12;;;;;;;22.83;2.97;;;;;;;5.63;100.00;102514.38;4901878;29;20078;-87
2022/01/23 15:33:38;;;;;;;16.42;2.83;;;;;;;5.60;100.00;102495.09;4912633;29;20454;-87
2022/01/23 15:36:03;;;;;;;23.40;2.97;;;;;;;5.35;100.00;102461.50;4921728;29;20070;-89
2022/01/23 15:38:30;;;;;;;23.05;3.00;;;;;;;5.63;100.00;102493.03;4921229;29;20039;-88
2022/01/23 15:40:55;;;;;;;19.48;3.03;;;;;;;5.33;100.00;102431.41;4917128;29;20088;-87
2022/01/23 15:43:22;;;;;;;19.02;2.80;;;;;;;5.33;100.00;102423.41;4918275;29;20032;-88
2022/01/23 15:45:47;;;;;;;18.33;2.70;;;;;;;5.70;100.00;102463.16;4920606;29;20028;-88
2022/01/23 15:48:13;;;;;;;16.80;2.58;;;;;;;5.56;100.00;102443.75;4940773;29;20113;-89
2022/01/23 15:50:39;;;;;;;20.55;3.08;;;;;;;6.03;100.00;102515.63;4921062;29;20122;-86
2022/01/23 15:53:05;;;;;;;27.02;2.83;;;;;;;6.07;100.00;102515.25;4937514;29;20060;-88
2022/01/23 15:55:31;;;;;;;19.35;2.10;;;;;;;5.77;100.00;102445.63;4919858;29;20028;-88
2022/01/23 15:57:57;;;;;;;21.23;2.83;;;;;;;6.16;100.00;102488.72;4907597;29;20020;-88
2022/01/23 16:00:24;;;;;;;19.48;2.70;;;;;;;5.94;100.00;102446.94;4921502;29;20043;-89
2022/01/23 16:02:50;;;;;;;22.23;3.42;;;;;;;5.91;100.00;102431.13;4937868;29;20027;-89
2022/01/23 16:05:18;;;;;;;27.67;3.45;;;;;;;6.27;100.00;102475.31;4920948;29;20028;-87
2022/01/23 16:07:45;;;;;;;25.08;2.78;;;;;;;5.97;100.00;102431.47;4936802;29;20024;-86
2022/01/23 16:10:11;;;;;;;21.10;2.90;;;;;;;5.94;100.00;102439.75;4937894;29;20028;-85
2022/01/23 16:12:38;;;;;;;26.77;3.22;;;;;;;6.81;100.00;102578.56;4932531;29;20036;-87
2022/01/23 16:15:09;;;;;;;23.25;2.90;;;;;;;6.80;100.00;102576.88;4933675;29;20039;-85
2022/01/23 16:17:34;;;;;;;32.80;3.55;;;;;;;6.62;100.00;102544.50;4911707;29;20056;-80
2022/01/23 16:20:02;;;;;;;29.55;3.33;;;;;;;5.94;100.00;102449.59;4925957;29;20051;-87